Kavarna, Bulgaria
Current Conditions -  °F | °C
As of 4:00 AM on Sunday 26 Oct 2014 (Local Time) from LBWN Reporting Station
Light Rain Light Rain  
Wind Chill: 28°   Ceiling: Unl
Heat Index: 39°   Visibility: 6mi
Dew Point: 37°   Wind: 27mph
Humidity: 93%   Direction: 360°N
Pressure: 30.12"   Gusts: 38mph
Location:  43.44°N, 28.34°E
Report Text: LBWN 260100Z 36012G17MPS 9999 -RA FEW033 SCT049 04/03 Q1020 RERA NOSIG
Loading
Personal Weather Stations






























Interactive Weather Map
Tropical Storm Tracking
New forecast layout! Learn more

10-Day Weather Forecast

Advertisements
Track Severe Weather on mobile